Time;durP1;ratioP1;P1;durP2;ratioP2;P2;SDS_P1;SDS_P2;PMS_P1;PMS_P2;Temp;Humidity;BMP_temperature;BMP_pressure;BME280_temperature;BME280_humidity;BME280_pressure;Samples;Min_cycle;Max_cycle;Signal;HPM_P1;HPM_P2
2021/06/18 00:01:16;;;;;;;8.63;5.47;;;;;;;16.96;75.68;98004.73;1682591;85;21029;-77
2021/06/18 00:03:43;;;;;;;7.58;5.50;;;;;;;17.01;75.37;98002.67;1673713;85;20966;-77
2021/06/18 00:06:09;;;;;;;8.35;5.70;;;;;;;17.06;75.26;97998.91;1661164;85;21060;-77
2021/06/18 00:08:37;;;;;;;7.92;5.70;;;;;;;17.10;75.00;98001.77;1665116;85;21040;-77
2021/06/18 00:11:04;;;;;;;6.80;5.08;;;;;;;17.09;75.23;98002.73;1653859;87;21094;-77
2021/06/18 00:13:31;;;;;;;7.50;5.30;;;;;;;17.09;75.13;97993.36;1660759;85;21458;-77
2021/06/18 00:15:57;;;;;;;7.03;5.47;;;;;;;17.13;74.83;97992.24;1682566;85;20974;-77
2021/06/18 00:18:24;;;;;;;9.08;4.75;;;;;;;17.12;74.68;97990.52;1682758;85;21049;-77
2021/06/18 00:20:50;;;;;;;7.78;5.45;;;;;;;17.07;74.79;97995.27;1682765;85;21077;-77
2021/06/18 00:23:17;;;;;;;7.60;4.67;;;;;;;16.99;75.14;97993.84;1661028;85;22369;-76
2021/06/18 00:25:44;;;;;;;7.92;5.45;;;;;;;17.00;74.88;97978.66;1680977;85;21045;-77
2021/06/18 00:28:17;;;;;;;6.95;5.05;;;;;;;16.99;74.77;97975.59;1670328;85;21027;-77
2021/06/18 00:30:42;;;;;;;7.45;5.30;;;;;;;16.98;74.38;97980.08;1677179;85;21112;-76
2021/06/18 00:33:09;;;;;;;8.60;5.42;;;;;;;16.94;75.26;97982.53;1682639;85;21072;-77
2021/06/18 00:35:36;;;;;;;8.05;4.60;;;;;;;16.91;74.77;97981.37;1661263;86;21043;-76
2021/06/18 00:38:02;;;;;;;7.35;4.95;;;;;;;16.84;75.61;97982.20;1662982;86;21035;-76
2021/06/18 00:40:29;;;;;;;7.47;4.85;;;;;;;16.81;75.52;97986.86;1663176;86;21082;-76
2021/06/18 00:42:56;;;;;;;7.67;5.08;;;;;;;16.75;75.59;97987.59;1641877;86;21504;-77
2021/06/18 00:45:22;;;;;;;5.80;4.53;;;;;;;16.73;75.25;97985.45;1687778;85;21026;-77
2021/06/18 00:47:54;;;;;;;5.28;4.75;;;;;;;16.66;76.60;97988.55;1689157;85;20998;-77
2021/06/18 00:50:22;;;;;;;5.83;5.00;;;;;;;16.66;75.32;97982.74;1682806;84;21013;-77
2021/06/18 00:52:48;;;;;;;6.78;4.90;;;;;;;16.60;76.89;97979.04;1681589;85;21013;-77
2021/06/18 00:55:15;;;;;;;5.75;4.67;;;;;;;16.57;76.45;97980.07;1690623;85;20973;-77
2021/06/18 00:57:42;;;;;;;5.87;5.10;;;;;;;16.55;76.86;97969.06;1681848;85;21029;-77
2021/06/18 01:00:11;;;;;;;7.50;4.70;;;;;;;16.51;77.19;97967.04;1690907;84;21105;-77
2021/06/18 01:02:39;;;;;;;8.13;4.90;;;;;;;16.50;76.30;97962.64;1690872;85;21092;-77
2021/06/18 01:05:10;;;;;;;5.60;4.20;;;;;;;16.48;76.94;97968.07;1690456;84;21068;-78
2021/06/18 01:08:11;;;;;;;5.87;4.33;;;;;;;16.45;77.45;97965.55;1690827;85;21094;-78
2021/06/18 01:10:58;;;;;;;5.83;4.40;;;;;;;16.47;77.76;97970.36;1663063;86;21000;-77
2021/06/18 01:13:57;;;;;;;4.58;4.12;;;;;;;16.50;77.13;97971.52;1665400;85;21040;-78
2021/06/18 01:16:45;;;;;;;10.63;4.60;;;;;;;16.54;76.79;97962.88;1690954;84;21033;-77
2021/06/18 01:19:33;;;;;;;8.28;4.92;;;;;;;16.60;76.44;97962.52;1686145;84;21482;-78
2021/06/18 01:22:07;;;;;;;7.17;4.67;;;;;;;16.64;76.32;97960.53;1691093;84;21378;-78
2021/06/18 01:24:54;;;;;;;;;;;;;;;16.66;76.60;97962.67;1692518;84;21070;-77
2021/06/18 01:27:35;;;;;;;6.65;4.53;;;;;;;16.69;76.41;97970.52;1689284;84;20142;-78
2021/06/18 01:30:22;;;;;;;6.90;4.80;;;;;;;16.64;76.24;97969.91;1689266;84;21049;-78
2021/06/18 01:33:00;;;;;;;5.80;4.30;;;;;;;16.65;76.20;97966.27;1689066;85;21028;-77
2021/06/18 01:35:35;;;;;;;10.15;4.85;;;;;;;16.65;76.00;97966.27;1685631;85;21027;-78
2021/06/18 01:38:06;;;;;;;5.97;4.35;;;;;;;16.63;76.36;97955.68;1680013;85;21037;-78
2021/06/18 01:40:35;;;;;;;5.12;4.42;;;;;;;16.62;76.36;97955.76;1682912;85;20994;-78
2021/06/18 01:43:05;;;;;;;22.67;16.37;;;;;;;16.61;75.76;97958.05;1670406;85;21041;-78
2021/06/18 01:45:34;;;;;;;5.33;4.53;;;;;;;16.58;76.28;97954.20;1681465;85;21005;-77
2021/06/18 01:48:04;;;;;;;5.30;4.78;;;;;;;16.52;76.27;97960.73;1682856;85;21089;-78
2021/06/18 01:50:32;;;;;;;8.23;4.62;;;;;;;16.50;75.67;97966.66;1661367;85;21076;-78
2021/06/18 01:53:16;;;;;;;4.78;4.28;;;;;;;16.43;77.05;97966.13;1682606;85;21072;-78
2021/06/18 01:55:44;;;;;;;5.10;4.30;;;;;;;16.40;76.65;97961.42;1682661;85;20994;-78
2021/06/18 01:58:12;;;;;;;6.50;4.90;;;;;;;16.38;76.20;97958.82;1661177;85;21073;-78
2021/06/18 02:00:46;;;;;;;6.65;4.80;;;;;;;16.34;76.50;97953.23;1682460;85;20969;-78
2021/06/18 02:03:24;;;;;;;6.28;4.60;;;;;;;16.35;75.90;97962.52;1681890;85;21006;-78
2021/06/18 02:05:54;;;;;;;8.00;4.83;;;;;;;16.37;76.04;97959.77;1670672;85;21088;-78
2021/06/18 02:08:23;;;;;;;6.12;4.83;;;;;;;16.35;76.56;97958.52;1667292;85;21044;-78
2021/06/18 02:10:52;;;;;;;6.67;4.40;;;;;;;16.38;76.35;97960.62;1681410;85;21001;-79
2021/06/18 02:13:20;;;;;;;5.62;4.83;;;;;;;16.38;77.28;97966.84;1662245;85;21498;-78
2021/06/18 02:15:48;;;;;;;6.75;4.80;;;;;;;16.39;76.57;97964.55;1681266;85;21015;-78
2021/06/18 02:18:20;;;;;;;8.58;4.55;;;;;;;16.41;76.88;97951.98;1682723;85;21464;-79
2021/06/18 02:20:48;;;;;;;7.25;4.65;;;;;;;16.40;77.34;97955.58;1682473;85;20997;-79
2021/06/18 02:23:16;;;;;;;4.80;4.30;;;;;;;16.42;77.14;97960.84;1682647;85;21411;-78
2021/06/18 02:25:45;;;;;;;7.70;4.67;;;;;;;16.47;76.91;97955.66;1682594;85;21068;-78
2021/06/18 02:28:11;;;;;;;8.75;4.40;;;;;;;16.53;76.70;97946.41;1682532;85;21032;-78
2021/06/18 02:30:38;;;;;;;10.70;4.90;;;;;;;16.52;77.18;97943.84;1682275;85;20962;-78
2021/06/18 02:33:11;;;;;;;4.80;4.30;;;;;;;16.56;76.53;97945.41;1650192;86;21046;-78
2021/06/18 02:35:33;;;;;;;5.47;4.20;;;;;;;16.62;76.49;97949.07;1685366;84;21048;-78
2021/06/18 02:38:00;;;;;;;5.58;4.80;;;;;;;16.71;76.46;97947.22;1666014;84;21033;-78
2021/06/18 02:40:27;;;;;;;5.28;4.22;;;;;;;16.75;76.38;97951.92;1658110;85;21041;-79
2021/06/18 02:42:53;;;;;;;4.33;3.92;;;;;;;16.77;76.54;97944.66;1682436;85;21014;-77
2021/06/18 02:45:20;;;;;;;5.85;4.03;;;;;;;16.75;75.95;97940.76;1682588;85;21041;-77
2021/06/18 02:48:16;;;;;;;9.03;5.20;;;;;;;16.79;75.93;97934.75;1682799;85;21033;-77
2021/06/18 02:51:09;;;;;;;11.35;5.95;;;;;;;16.83;76.03;97939.45;1682384;85;21038;-77
2021/06/18 02:53:50;;;;;;;6.78;5.28;;;;;;;16.88;76.05;97938.72;1680705;85;21021;-77
2021/06/18 02:56:27;;;;;;;5.62;4.50;;;;;;;16.90;75.85;97936.80;1680883;85;20970;-77
2021/06/18 02:59:14;;;;;;;6.37;4.72;;;;;;;16.89;75.65;97938.63;1674329;85;21002;-77
2021/06/18 03:01:42;;;;;;;6.05;4.33;;;;;;;16.86;75.61;97933.94;1682305;85;21041;-76
2021/06/18 03:04:21;;;;;;;8.73;4.87;;;;;;;16.88;75.10;97929.34;1682538;85;21058;-77
2021/06/18 03:06:53;;;;;;;6.08;4.45;;;;;;;16.88;75.18;97940.05;1683166;85;21053;-77
2021/06/18 03:09:31;;;;;;;9.18;5.22;;;;;;;16.84;74.95;97940.71;1660536;85;21133;-76
2021/06/18 03:11:59;;;;;;;6.90;4.90;;;;;;;16.85;75.20;97941.09;1676117;85;20998;-76
2021/06/18 03:14:30;;;;;;;6.20;4.92;;;;;;;16.82;75.01;97939.91;1668015;85;21017;-76
2021/06/18 03:17:03;;;;;;;7.00;5.15;;;;;;;16.85;75.35;97946.44;1657826;87;21120;-75
2021/06/18 03:19:43;;;;;;;10.58;4.62;;;;;;;16.85;75.09;97942.89;1657017;87;21041;-76
2021/06/18 03:22:12;;;;;;;8.30;5.08;;;;;;;16.86;74.93;97950.84;1676154;85;21060;-77
2021/06/18 03:24:39;;;;;;;8.88;5.00;;;;;;;16.84;74.99;97949.20;1657600;85;21059;-77
2021/06/18 03:27:07;;;;;;;7.10;4.87;;;;;;;16.82;75.19;97947.94;1646583;87;21048;-78
2021/06/18 03:29:36;;;;;;;6.17;4.65;;;;;;;16.83;75.18;97952.37;1644175;87;21454;-77
2021/06/18 03:32:05;;;;;;;6.70;4.75;;;;;;;16.85;75.00;97952.26;1670764;85;21447;-78
2021/06/18 03:34:33;;;;;;;8.25;4.60;;;;;;;16.86;75.05;97950.84;1681152;85;21558;-77
2021/06/18 03:37:01;;;;;;;8.20;5.25;;;;;;;16.87;74.93;97945.02;1684619;83;21101;-77
2021/06/18 03:39:30;;;;;;;7.10;4.70;;;;;;;16.86;75.28;97941.97;1689203;85;20986;-77
2021/06/18 03:41:58;;;;;;;7.42;5.00;;;;;;;16.82;75.13;97939.07;1690372;84;21071;-76
2021/06/18 03:44:26;;;;;;;7.20;5.12;;;;;;;16.82;75.23;97952.45;1691300;84;20989;-77
2021/06/18 03:46:54;;;;;;;6.78;5.33;;;;;;;16.81;75.50;97964.11;1666131;85;21068;-77
2021/06/18 03:49:24;;;;;;;8.05;4.80;;;;;;;16.81;75.22;97959.60;1671173;85;22229;-78
2021/06/18 03:51:53;;;;;;;7.80;5.25;;;;;;;16.84;74.98;97959.45;1666854;85;20997;-77
2021/06/18 03:54:22;;;;;;;10.58;5.25;;;;;;;16.87;75.34;97958.41;1690708;84;21458;-78
2021/06/18 03:56:48;;;;;;;9.28;5.05;;;;;;;16.88;75.02;97954.78;1690916;85;21017;-77
2021/06/18 03:59:17;;;;;;;6.92;5.47;;;;;;;16.88;75.79;97954.31;1690828;84;21128;-77
2021/06/18 04:01:53;;;;;;;12.10;5.15;;;;;;;16.88;75.82;97950.30;1689893;84;21013;-77
2021/06/18 04:04:23;;;;;;;6.85;4.92;;;;;;;16.94;75.29;97949.06;1689059;85;21475;-75
2021/06/18 04:06:52;;;;;;;6.30;4.87;;;;;;;16.97;75.96;97944.02;1688919;84;21032;-75
2021/06/18 04:09:19;;;;;;;8.98;5.00;;;;;;;17.00;75.83;97945.19;1689160;84;21065;-75
2021/06/18 04:11:46;;;;;;;6.60;5.20;;;;;;;17.06;75.65;97949.38;1688878;84;21084;-76
2021/06/18 04:14:14;;;;;;;7.75;4.72;;;;;;;17.14;75.24;97953.80;1667783;85;21549;-74
2021/06/18 04:16:41;;;;;;;8.45;4.85;;;;;;;17.17;75.86;97954.97;1681357;85;21523;-75
2021/06/18 04:19:09;;;;;;;10.68;4.72;;;;;;;17.26;74.98;97952.23;1683995;85;21399;-75
2021/06/18 04:21:44;;;;;;;7.58;4.95;;;;;;;17.35;74.65;97958.89;1683596;85;21464;-75
2021/06/18 04:24:15;;;;;;;8.08;4.90;;;;;;;17.41;74.36;97951.83;1690889;84;21028;-75
2021/06/18 04:26:43;;;;;;;12.15;4.90;;;;;;;17.47;74.45;97954.60;1689062;85;21494;-75
2021/06/18 04:29:11;;;;;;;7.70;4.60;;;;;;;17.53;74.22;97955.11;1684685;85;20961;-75
2021/06/18 04:31:38;;;;;;;7.50;4.65;;;;;;;17.53;74.36;97955.61;1682480;85;20981;-75
2021/06/18 04:34:07;;;;;;;6.05;4.92;;;;;;;17.58;74.25;97958.00;1688974;85;21457;-76
2021/06/18 04:36:36;;;;;;;8.25;5.08;;;;;;;17.63;74.51;97950.55;1669678;84;21037;-75
2021/06/18 04:39:05;;;;;;;6.72;4.90;;;;;;;17.69;74.53;97952.89;1674095;85;21088;-75
2021/06/18 04:41:32;;;;;;;9.05;5.30;;;;;;;17.76;74.75;97947.53;1694951;84;21430;-75
2021/06/18 04:43:58;;;;;;;7.17;4.30;;;;;;;17.86;74.72;97949.16;1698540;84;21446;-75
2021/06/18 04:46:25;;;;;;;7.58;4.58;;;;;;;17.93;74.36;97955.02;1698581;84;21064;-75
2021/06/18 04:48:52;;;;;;;8.93;4.30;;;;;;;17.98;73.77;97954.27;1698424;84;20997;-75
2021/06/18 04:51:19;;;;;;;6.87;4.95;;;;;;;18.05;73.62;97956.09;1687545;84;21475;-75
2021/06/18 04:53:47;;;;;;;7.50;5.72;;;;;;;18.07;73.22;97959.10;1681522;85;21479;-75
2021/06/18 04:56:14;;;;;;;7.55;5.47;;;;;;;18.13;73.10;97966.39;1681372;85;20966;-75
2021/06/18 04:58:40;;;;;;;10.65;5.17;;;;;;;18.14;72.74;97966.80;1681543;85;21038;-75
2021/06/18 05:01:07;;;;;;;13.78;6.20;;;;;;;18.16;72.79;97966.22;1684892;84;21052;-74
2021/06/18 05:03:34;;;;;;;8.68;5.78;;;;;;;18.20;72.57;97967.75;1684421;84;21489;-75
2021/06/18 05:06:03;;;;;;;9.83;5.70;;;;;;;18.24;72.23;97971.11;1685972;85;21064;-75
2021/06/18 05:08:29;;;;;;;8.88;5.90;;;;;;;18.27;72.36;97977.63;1680088;85;21466;-75
2021/06/18 05:10:56;;;;;;;8.83;5.22;;;;;;;18.31;72.15;97971.13;1690834;84;21023;-76
2021/06/18 05:13:23;;;;;;;11.70;5.87;;;;;;;18.32;72.01;97973.69;1691034;84;20985;-76
2021/06/18 05:15:51;;;;;;;8.70;5.65;;;;;;;18.30;71.94;97976.08;1692236;85;21383;-75
2021/06/18 05:18:18;;;;;;;10.95;5.85;;;;;;;18.30;72.09;97978.30;1687928;85;21001;-74
2021/06/18 05:20:44;;;;;;;9.83;5.87;;;;;;;18.24;72.44;97969.30;1688557;84;21009;-83
2021/06/18 05:23:11;;;;;;;14.68;5.60;;;;;;;18.23;73.18;97971.56;1687982;84;21001;-84
2021/06/18 05:25:37;;;;;;;9.83;5.65;;;;;;;18.28;73.22;97967.28;1673168;85;21422;-80
2021/06/18 05:28:04;;;;;;;7.53;5.58;;;;;;;18.32;72.73;97964.80;1682702;85;21027;-80
2021/06/18 05:30:32;;;;;;;13.08;5.78;;;;;;;18.34;73.17;97963.74;1682857;85;21059;-81
2021/06/18 05:32:59;;;;;;;10.50;6.12;;;;;;;18.39;73.15;97970.65;1688711;84;21044;-81
2021/06/18 05:35:26;;;;;;;13.88;5.95;;;;;;;18.43;72.94;97963.64;1688862;85;21042;-80
2021/06/18 05:37:56;;;;;;;9.13;4.97;;;;;;;18.42;72.97;97964.61;1689137;85;21069;-80
2021/06/18 05:40:22;;;;;;;10.85;5.60;;;;;;;18.46;72.96;97960.77;1685625;85;21009;-81
2021/06/18 05:42:49;;;;;;;11.33;7.20;;;;;;;18.51;72.63;97956.95;1688596;85;21037;-81
2021/06/18 05:45:16;;;;;;;17.45;12.20;;;;;;;18.52;72.63;97958.16;1686167;85;20997;-80
2021/06/18 05:47:43;;;;;;;7.45;5.42;;;;;;;18.52;72.74;97958.16;1686082;85;21406;-80
2021/06/18 05:50:11;;;;;;;8.28;5.45;;;;;;;18.48;73.56;97959.34;1686663;85;20957;-80
2021/06/18 05:52:37;;;;;;;8.28;5.40;;;;;;;18.58;73.53;97956.92;1687008;85;21053;-79
2021/06/18 05:55:07;;;;;;;12.00;6.20;;;;;;;18.72;73.25;97958.72;1685096;85;20957;-80
2021/06/18 05:57:35;;;;;;;10.25;5.62;;;;;;;18.78;73.16;97954.80;1679783;85;21083;-79
2021/06/18 06:00:05;;;;;;;8.83;5.70;;;;;;;18.86;72.93;97968.10;1683972;85;21513;-79
2021/06/18 06:02:33;;;;;;;9.95;5.67;;;;;;;18.95;72.77;97971.16;1688293;85;21004;-80
2021/06/18 06:04:59;;;;;;;9.25;5.50;;;;;;;19.04;72.62;97962.55;1685478;85;22068;-80
2021/06/18 06:07:26;;;;;;;10.13;5.55;;;;;;;19.10;72.56;97959.95;1690798;84;21021;-83
2021/06/18 06:09:52;;;;;;;9.38;5.03;;;;;;;19.15;72.47;97957.83;1690641;85;21032;-83
2021/06/18 06:12:19;;;;;;;8.68;4.97;;;;;;;19.23;72.43;97964.03;1684153;85;21450;-83
2021/06/18 06:14:45;;;;;;;10.65;5.72;;;;;;;19.30;72.31;97962.66;1688670;85;21008;-83
2021/06/18 06:17:12;;;;;;;11.48;6.20;;;;;;;19.38;72.06;97973.77;1688272;85;20969;-83
2021/06/18 06:19:49;;;;;;;11.63;6.05;;;;;;;19.44;71.68;97977.01;1679958;85;21070;-83
2021/06/18 06:22:19;;;;;;;14.05;6.92;;;;;;;19.51;71.73;97979.19;1690995;84;21001;-82
2021/06/18 06:24:46;;;;;;;11.95;5.95;;;;;;;19.58;71.42;97969.36;1690058;85;21118;-82
2021/06/18 06:27:14;;;;;;;12.07;6.17;;;;;;;19.57;71.40;97964.48;1651904;85;21931;-83
2021/06/18 06:29:41;;;;;;;14.80;6.67;;;;;;;19.63;71.49;97964.06;1682449;85;21020;-82
2021/06/18 06:32:08;;;;;;;15.63;6.95;;;;;;;19.71;71.57;97962.66;1687699;85;21063;-83
2021/06/18 06:34:34;;;;;;;20.10;6.35;;;;;;;19.78;71.34;97965.33;1684975;85;20989;-83
2021/06/18 06:37:01;;;;;;;11.80;6.85;;;;;;;19.85;70.96;97976.53;1686179;84;21008;-82
2021/06/18 06:39:27;;;;;;;13.22;6.03;;;;;;;19.86;70.52;97964.34;1689052;85;21446;-82
2021/06/18 06:41:54;;;;;;;11.45;6.22;;;;;;;19.84;70.70;97954.66;1731096;83;20960;-83
2021/06/18 06:44:21;;;;;;;8.25;5.10;;;;;;;19.87;70.89;97953.95;1731420;82;21015;-82
2021/06/18 06:46:47;;;;;;;15.13;6.72;;;;;;;19.92;71.13;97950.45;1691215;85;21105;-83
2021/06/18 06:49:14;;;;;;;12.85;5.90;;;;;;;20.01;71.06;97951.67;1688711;85;21020;-83
2021/06/18 06:51:40;;;;;;;10.98;6.20;;;;;;;20.09;71.32;97948.95;1692460;84;21056;-83
2021/06/18 06:54:07;;;;;;;11.33;6.08;;;;;;;20.17;71.08;97950.13;1730770;83;21563;-82
2021/06/18 06:56:33;;;;;;;10.72;5.70;;;;;;;20.23;70.91;97948.84;1730962;83;20971;-82
2021/06/18 06:59:00;;;;;;;11.03;5.37;;;;;;;20.31;70.48;97948.30;1715902;83;20985;-83
2021/06/18 07:01:27;;;;;;;7.65;5.15;;;;;;;20.39;70.27;97944.56;1691698;84;22313;-83
2021/06/18 07:03:53;;;;;;;10.38;5.40;;;;;;;20.47;70.08;97952.09;1729040;83;20953;-83
2021/06/18 07:06:20;;;;;;;12.82;5.55;;;;;;;20.60;69.71;97948.06;1730918;83;20987;-83
2021/06/18 07:08:46;;;;;;;13.28;5.62;;;;;;;20.69;69.51;97944.68;1690905;85;21107;-83
2021/06/18 07:11:13;;;;;;;13.88;5.30;;;;;;;20.79;69.38;97945.36;1691298;84;21411;-83
2021/06/18 07:13:40;;;;;;;30.35;15.85;;;;;;;20.95;69.27;97948.71;1730937;82;20996;-83
2021/06/18 07:16:06;;;;;;;15.58;8.63;;;;;;;21.18;69.22;97937.21;1730697;82;20983;-83
2021/06/18 07:18:35;;;;;;;11.60;5.10;;;;;;;21.38;67.54;97938.90;1687035;85;21030;-83
2021/06/18 07:21:03;;;;;;;10.53;4.90;;;;;;;21.60;66.47;97936.78;1688603;84;21004;-83
2021/06/18 07:23:30;;;;;;;13.13;5.28;;;;;;;21.83;64.69;97931.48;1690608;85;21036;-83
2021/06/18 07:25:56;;;;;;;8.70;4.70;;;;;;;22.05;64.60;97931.17;1730308;83;21023;-83
2021/06/18 07:28:23;;;;;;;11.05;5.85;;;;;;;22.24;62.98;97935.98;1730630;82;21001;-83
2021/06/18 07:30:49;;;;;;;9.93;5.53;;;;;;;22.38;63.30;97926.80;1730581;82;20924;-83
2021/06/18 07:33:16;;;;;;;9.98;5.75;;;;;;;22.50;63.35;97921.76;1689365;85;21469;-83
2021/06/18 07:35:43;;;;;;;8.08;5.17;;;;;;;22.68;62.87;97918.60;1730460;82;21445;-83
2021/06/18 07:38:09;;;;;;;10.82;5.12;;;;;;;22.82;62.68;97917.47;1727705;83;21470;-83
2021/06/18 07:40:36;;;;;;;11.57;5.25;;;;;;;23.02;62.26;97914.97;1723063;83;21018;-83
2021/06/18 07:43:03;;;;;;;7.15;5.03;;;;;;;23.22;62.27;97921.44;1723072;82;21009;-83
2021/06/18 07:45:31;;;;;;;7.08;5.12;;;;;;;23.39;60.89;97921.89;1723187;83;21496;-84
2021/06/18 07:47:57;;;;;;;9.15;5.17;;;;;;;23.49;60.88;97917.42;1723143;83;20992;-83
2021/06/18 07:50:30;;;;;;;7.28;4.92;;;;;;;23.47;60.35;97910.78;1723019;83;20960;-83
2021/06/18 07:52:56;;;;;;;7.03;4.80;;;;;;;23.46;60.11;97911.78;1722729;83;21035;-83
2021/06/18 07:55:24;;;;;;;6.47;4.67;;;;;;;23.39;59.05;97901.61;1707351;83;21020;-83
2021/06/18 07:57:52;;;;;;;9.63;5.20;;;;;;;23.44;60.24;97902.95;1694981;84;22224;-85
2021/06/18 08:00:20;;;;;;;6.72;5.67;;;;;;;23.51;60.62;97901.95;1685824;83;21353;-80
2021/06/18 08:02:48;;;;;;;9.60;4.90;;;;;;;23.56;59.63;97895.65;1693903;84;21048;-82
2021/06/18 08:05:16;;;;;;;7.75;5.03;;;;;;;23.60;60.04;97896.23;1698734;84;21011;-82
2021/06/18 08:07:46;;;;;;;5.30;4.20;;;;;;;23.66;59.15;97899.77;1699176;84;21020;-81
2021/06/18 08:10:16;;;;;;;6.95;4.58;;;;;;;23.71;59.04;97901.58;1698752;84;21591;-82
2021/06/18 08:12:45;;;;;;;5.03;4.53;;;;;;;23.76;59.08;97896.27;1698915;84;22246;-81
2021/06/18 08:15:13;;;;;;;7.67;4.60;;;;;;;23.82;59.18;97893.90;1698492;84;21051;-81
2021/06/18 08:17:40;;;;;;;5.72;4.75;;;;;;;23.88;59.09;97894.36;1698724;84;21489;-81
2021/06/18 08:20:09;;;;;;;7.37;5.08;;;;;;;23.95;58.21;97888.80;1699111;84;21031;-81
2021/06/18 08:22:37;;;;;;;4.85;4.30;;;;;;;24.03;57.87;97886.25;1699054;84;20993;-81
2021/06/18 08:25:05;;;;;;;5.72;4.10;;;;;;;24.10;56.25;97881.20;1698360;84;20989;-82
2021/06/18 08:27:32;;;;;;;6.92;4.67;;;;;;;24.19;56.59;97882.23;1697246;84;21004;-82
2021/06/18 08:29:59;;;;;;;7.00;4.70;;;;;;;24.24;56.94;97873.20;1698742;84;21427;-82
2021/06/18 08:32:26;;;;;;;7.90;4.53;;;;;;;24.30;56.35;97875.39;1698359;84;20995;-82
2021/06/18 08:34:53;;;;;;;5.75;4.70;;;;;;;24.33;56.16;97875.10;1699034;84;20989;-83
2021/06/18 08:37:22;;;;;;;5.75;4.78;;;;;;;24.38;55.34;97869.30;1699311;84;21100;-82
2021/06/18 08:39:48;;;;;;;5.65;4.97;;;;;;;24.44;55.30;97873.28;1668319;85;21532;-82
2021/06/18 08:42:15;;;;;;;7.40;4.67;;;;;;;24.49;54.99;97867.83;1720626;83;20996;-83
2021/06/18 08:44:45;;;;;;;6.22;4.75;;;;;;;24.59;54.49;97868.36;1720428;83;21057;-82
2021/06/18 08:47:10;;;;;;;4.90;4.50;;;;;;;24.68;54.63;97853.12;1719850;83;20967;-81
2021/06/18 08:49:37;;;;;;;5.30;4.35;;;;;;;24.78;53.05;97853.99;1719994;83;20971;-81
2021/06/18 08:52:04;;;;;;;6.25;5.03;;;;;;;24.86;52.80;97858.74;1719974;83;21067;-81
2021/06/18 08:54:41;;;;;;;5.40;4.00;;;;;;;24.93;53.12;97854.49;1716058;83;21082;-82
2021/06/18 08:57:15;;;;;;;4.62;4.12;;;;;;;24.97;52.68;97859.13;1719613;83;20987;-81
2021/06/18 08:59:43;;;;;;;4.78;4.37;;;;;;;25.01;51.50;97864.14;1719448;83;21039;-81
2021/06/18 09:02:11;;;;;;;4.22;3.80;;;;;;;25.06;51.80;97852.86;1714104;83;21051;-81
2021/06/18 09:05:07;;;;;;;4.10;3.70;;;;;;;25.12;51.63;97845.51;1691338;85;20979;-81
2021/06/18 09:08:04;;;;;;;5.65;4.22;;;;;;;25.17;49.82;97835.09;1702087;83;21409;-81
2021/06/18 09:10:40;;;;;;;4.12;3.77;;;;;;;25.25;51.14;97834.89;1720166;83;20988;-82
2021/06/18 09:13:32;;;;;;;6.12;4.35;;;;;;;25.26;48.69;97832.05;1716020;83;21024;-83
2021/06/18 09:15:59;;;;;;;7.20;4.92;;;;;;;25.32;49.76;97827.88;1718008;83;21012;-81
2021/06/18 09:18:39;;;;;;;4.42;4.00;;;;;;;25.42;50.16;97815.68;1719438;83;21003;-81
2021/06/18 09:21:14;;;;;;;6.85;5.90;;;;;;;25.49;49.25;97811.89;1697096;83;21483;-81
2021/06/18 09:23:54;;;;;;;11.15;7.92;;;;;;;25.59;49.77;97820.03;1720024;83;20960;-80
2021/06/18 09:26:31;;;;;;;5.60;3.85;;;;;;;25.69;49.58;97829.88;1697697;83;21026;-81
2021/06/18 09:29:17;;;;;;;4.75;3.92;;;;;;;25.70;47.09;97818.53;1720021;83;21023;-81
2021/06/18 09:32:01;;;;;;;6.95;5.30;;;;;;;25.73;48.07;97811.95;1715578;83;21389;-82
2021/06/18 09:37:34;;;;;;;5.30;3.95;;;;;;;25.89;48.21;97801.33;1724126;83;21023;-83
2021/06/18 09:40:10;;;;;;;6.03;4.60;;;;;;;26.03;48.44;97800.50;1725736;83;21015;-83
2021/06/18 09:42:57;;;;;;;4.42;4.03;;;;;;;26.12;47.33;97806.88;1729175;83;21018;-82
2021/06/18 09:45:28;;;;;;;6.72;4.75;;;;;;;26.12;46.93;97805.52;1694171;85;21073;-83
2021/06/18 09:48:20;;;;;;;4.67;4.28;;;;;;;26.21;47.18;97808.70;1730293;82;21143;-83
2021/06/18 09:50:50;;;;;;;5.45;4.75;;;;;;;26.30;47.12;97806.97;1730320;82;20984;-83
2021/06/18 09:53:24;;;;;;;4.90;4.00;;;;;;;26.39;46.46;97795.20;1730301;83;21170;-83
2021/06/18 09:56:04;;;;;;;5.60;4.17;;;;;;;26.39;46.46;97795.20;1730331;82;21402;-82
2021/06/18 09:58:44;;;;;;;4.37;4.03;;;;;;;26.51;46.38;97801.29;1729958;82;20949;-82
2021/06/18 10:01:27;;;;;;;5.30;3.95;;;;;;;26.59;46.17;97799.16;1730226;82;21042;-82
2021/06/18 10:04:11;;;;;;;4.33;3.83;;;;;;;26.69;45.07;97801.31;1730117;82;20987;-82
2021/06/18 10:06:40;;;;;;;4.22;3.60;;;;;;;26.78;45.24;97802.77;1725981;83;21016;-83
2021/06/18 10:09:10;;;;;;;4.10;3.70;;;;;;;26.83;44.51;97795.00;1730150;82;21032;-82
2021/06/18 10:11:42;;;;;;;5.95;4.10;;;;;;;26.95;44.74;97792.95;1697355;84;21703;-84
2021/06/18 10:14:08;;;;;;;12.25;10.95;;;;;;;26.95;44.74;97792.95;1692342;84;21454;-84
2021/06/18 10:16:36;;;;;;;4.40;4.00;;;;;;;27.10;44.38;97797.31;1692252;85;21092;-83
2021/06/18 10:19:04;;;;;;;4.30;3.90;;;;;;;27.23;44.49;97795.06;1683221;85;21075;-82
2021/06/18 10:21:36;;;;;;;4.50;3.90;;;;;;;27.39;44.84;97794.84;1689753;85;21068;-82
2021/06/18 10:24:05;;;;;;;3.98;3.60;;;;;;;27.55;44.50;97785.95;1666587;85;21309;-83
2021/06/18 10:26:36;;;;;;;5.97;4.00;;;;;;;27.72;43.75;97782.00;1685831;85;21438;-82
2021/06/18 10:29:03;;;;;;;4.65;3.62;;;;;;;27.78;43.34;97778.66;1663584;86;21559;-81
2021/06/18 10:31:36;;;;;;;5.97;4.60;;;;;;;27.82;43.27;97785.50;1687434;85;20989;-81
2021/06/18 10:34:07;;;;;;;5.65;3.40;;;;;;;27.94;43.22;97771.09;1671413;85;20989;-82
2021/06/18 10:36:35;;;;;;;4.50;3.95;;;;;;;28.05;42.65;97773.53;1645376;86;21059;-82
2021/06/18 10:39:21;;;;;;;9.10;3.87;;;;;;;28.23;42.72;97768.47;1670732;84;21032;-82
2021/06/18 10:41:56;;;;;;;5.65;3.95;;;;;;;28.37;42.20;97762.96;1697001;84;21004;-83
2021/06/18 10:44:44;;;;;;;4.00;3.60;;;;;;;28.65;42.11;97764.56;1696716;84;21096;-83
2021/06/18 10:47:34;;;;;;;5.25;4.00;;;;;;;29.18;40.72;97756.14;1696651;84;21549;-82
2021/06/18 10:50:01;;;;;;;4.95;3.72;;;;;;;30.11;40.30;97755.33;1668958;86;21036;-83
2021/06/18 10:52:43;;;;;;;4.08;3.67;;;;;;;31.15;38.12;97753.36;1689705;84;21024;-84
2021/06/18 10:55:14;;;;;;;3.75;3.45;;;;;;;31.80;37.46;97754.30;1696395;84;20989;-84
2021/06/18 10:57:52;;;;;;;5.80;3.37;;;;;;;32.71;35.32;97748.23;1670719;84;20963;-82
2021/06/18 11:00:23;;;;;;;3.47;3.10;;;;;;;33.42;34.00;97742.48;1690728;84;21063;-82
2021/06/18 11:02:50;;;;;;;4.25;3.83;;;;;;;34.06;34.23;97741.66;1691434;84;21395;-84
2021/06/18 11:05:35;;;;;;;4.00;3.45;;;;;;;34.59;31.98;97741.59;1696816;84;20985;-75
2021/06/18 11:08:20;;;;;;;3.65;3.35;;;;;;;35.19;29.05;97740.08;1696308;84;21013;-78
2021/06/18 11:10:48;;;;;;;3.47;2.95;;;;;;;35.42;30.86;97738.27;1671041;84;21072;-81
2021/06/18 11:13:18;;;;;;;3.45;3.20;;;;;;;36.10;28.89;97738.16;1667621;86;21008;-81
2021/06/18 11:15:46;;;;;;;3.60;3.30;;;;;;;36.39;28.25;97731.29;1693448;84;21009;-80
2021/06/18 11:18:18;;;;;;;3.90;2.92;;;;;;;36.56;28.22;97741.81;1696559;84;21028;-80
2021/06/18 11:20:49;;;;;;;4.72;3.10;;;;;;;36.51;27.13;97732.83;1671188;84;21593;-79
2021/06/18 11:23:26;;;;;;;3.70;3.40;;;;;;;35.84;27.99;97735.27;1669352;86;21430;-80
2021/06/18 11:26:09;;;;;;;3.62;3.30;;;;;;;35.52;29.61;97737.30;1695912;84;20977;-80
2021/06/18 11:28:43;;;;;;;4.30;3.17;;;;;;;35.97;28.54;97723.36;1696836;84;21366;-80
2021/06/18 11:31:21;;;;;;;4.83;3.27;;;;;;;36.70;28.36;97717.24;1707448;84;20963;-80
2021/06/18 11:33:56;;;;;;;3.33;3.05;;;;;;;37.17;27.28;97718.02;1712084;84;21366;-80
2021/06/18 11:36:35;;;;;;;3.92;3.10;;;;;;;37.00;26.50;97708.88;1712120;84;21031;-81
2021/06/18 11:39:10;;;;;;;6.25;3.42;;;;;;;37.17;27.21;97702.82;1698693;83;21061;-81
2021/06/18 11:41:40;;;;;;;4.97;3.60;;;;;;;37.73;26.70;97706.58;1681895;85;21072;-81
2021/06/18 11:44:10;;;;;;;4.53;3.20;;;;;;;38.16;25.42;97705.38;1681188;85;21517;-81
2021/06/18 11:46:37;;;;;;;3.52;3.22;;;;;;;38.40;22.85;97710.48;1662560;85;21346;-81
2021/06/18 11:49:14;;;;;;;3.70;3.02;;;;;;;38.37;23.47;97701.81;1675760;85;21057;-80
2021/06/18 11:51:42;;;;;;;3.50;3.20;;;;;;;38.58;23.53;97700.49;1675487;85;21040;-79